createdAt,value
2019-05-20T00:02:28.624Z,0.00
2019-05-20T00:17:29.104Z,0.00
2019-05-20T00:32:40.705Z,0.00
2019-05-20T00:47:34.476Z,0.00
2019-05-20T01:02:34.640Z,0.00
2019-05-20T01:17:34.842Z,0.00
2019-05-20T01:32:35.069Z,0.00
2019-05-20T01:47:35.195Z,0.00
2019-05-20T02:02:35.372Z,0.00
2019-05-20T02:17:35.622Z,0.00
2019-05-20T02:32:35.826Z,4.00
2019-05-20T02:47:36.046Z,32.00
2019-05-20T03:02:36.269Z,144.00
2019-05-20T03:17:36.341Z,388.00
2019-05-20T03:32:36.513Z,856.00
2019-05-20T03:47:36.600Z,1696.00
2019-05-20T04:02:37.226Z,2488.00
2019-05-20T04:17:37.373Z,2892.00
2019-05-20T04:32:37.509Z,4168.00
2019-05-20T04:47:37.723Z,4600.00
2019-05-20T05:02:37.929Z,5452.00
2019-05-20T05:17:38.051Z,4784.00
2019-05-20T05:32:38.230Z,4712.00
2019-05-20T05:47:38.310Z,8464.00
2019-05-20T06:02:38.461Z,8716.00
2019-05-20T06:17:38.644Z,9640.00
2019-05-20T06:32:38.774Z,10528.00
2019-05-20T06:47:38.934Z,12352.00
2019-05-20T07:02:39.064Z,15392.00
2019-05-20T07:17:39.181Z,19168.00
2019-05-20T07:32:39.291Z,27200.00
2019-05-20T07:47:39.406Z,34848.00
2019-05-20T08:02:39.483Z,37472.00
2019-05-20T08:17:39.711Z,32832.00
2019-05-20T08:32:39.808Z,40960.00
2019-05-20T08:47:40.450Z,51808.00
2019-05-20T09:02:40.663Z,29856.00
2019-05-20T09:17:40.836Z,49280.00
2019-05-20T09:32:42.986Z,21248.00
2019-05-20T09:47:43.129Z,32320.00
2019-05-20T10:02:43.228Z,74304.00
2019-05-20T10:17:43.426Z,19808.00
2019-05-20T10:32:43.538Z,76288.00
2019-05-20T10:47:43.654Z,76608.00
2019-05-20T11:02:43.845Z,49248.00
2019-05-20T11:17:43.961Z,21312.00
2019-05-20T11:32:44.084Z,27232.00
2019-05-20T11:47:44.273Z,13524.00
2019-05-20T12:02:44.490Z,7156.00
2019-05-20T12:17:44.800Z,11000.00
2019-05-20T12:32:44.958Z,29088.00
2019-05-20T12:47:45.204Z,44864.00
2019-05-20T13:02:45.437Z,29472.00
2019-05-20T13:17:45.742Z,20800.00
2019-05-20T13:32:45.724Z,27552.00
2019-05-20T13:47:45.851Z,7420.00
2019-05-20T14:02:46.038Z,3460.00
2019-05-20T14:17:46.626Z,2244.00
2019-05-20T14:32:47.411Z,856.00
2019-05-20T14:47:47.597Z,864.00
2019-05-20T15:02:47.715Z,336.00
2019-05-20T15:17:47.910Z,256.00
2019-05-20T15:32:48.084Z,292.00
2019-05-20T15:47:48.229Z,1088.00
2019-05-20T16:02:48.454Z,408.00
2019-05-20T16:17:48.887Z,1596.00
2019-05-20T16:32:48.738Z,2500.00
2019-05-20T16:47:48.929Z,2856.00
2019-05-20T17:02:49.132Z,2284.00
2019-05-20T17:17:49.253Z,1908.00
2019-05-20T17:32:49.479Z,1332.00
2019-05-20T17:47:49.613Z,2192.00
2019-05-20T18:02:49.761Z,1536.00
2019-05-20T18:17:49.911Z,1276.00
2019-05-20T18:32:50.091Z,1136.00
2019-05-20T18:47:50.212Z,248.00
2019-05-20T19:02:50.434Z,68.00
2019-05-20T19:17:50.550Z,16.00
2019-05-20T19:32:50.736Z,4.00
2019-05-20T19:47:50.879Z,0.00
2019-05-20T20:02:51.023Z,0.00
2019-05-20T20:17:51.167Z,0.00
2019-05-20T20:32:51.282Z,0.00
2019-05-20T20:47:51.409Z,0.00
2019-05-20T21:02:53.606Z,0.00
2019-05-20T21:17:53.753Z,0.00
2019-05-20T21:33:08.247Z,0.00
2019-05-20T21:47:59.143Z,0.00
2019-05-20T22:02:59.295Z,0.00
2019-05-20T22:17:59.417Z,0.00
2019-05-20T22:32:59.678Z,0.00
2019-05-20T22:47:59.859Z,0.00
2019-05-20T23:02:59.976Z,0.00
2019-05-20T23:18:00.198Z,0.00
2019-05-20T23:33:00.352Z,0.00
2019-05-20T23:48:00.508Z,0.00
